createdAt,value
2023-04-22T00:00:53.831Z,1011.79
2023-04-22T00:01:53.828Z,1011.78
2023-04-22T00:02:53.906Z,1011.73
2023-04-22T00:03:53.908Z,1011.73
2023-04-22T00:04:54.195Z,1011.74
2023-04-22T00:05:53.811Z,1011.69
2023-04-22T00:06:53.771Z,1011.64
2023-04-22T00:07:53.776Z,1011.67
2023-04-22T00:08:53.742Z,1011.68
2023-04-22T00:09:53.753Z,1011.71
2023-04-22T00:10:53.725Z,1011.65
2023-04-22T00:11:53.726Z,1011.72
2023-04-22T00:12:53.720Z,1011.68
2023-04-22T00:13:53.703Z,1011.68
2023-04-22T00:14:53.704Z,1011.68
2023-04-22T00:15:53.670Z,1011.69
2023-04-22T00:16:53.652Z,1011.60
2023-04-22T00:17:53.679Z,1011.59
2023-04-22T00:18:53.632Z,1011.65
2023-04-22T00:19:53.651Z,1011.55
2023-04-22T00:20:53.613Z,1011.56
2023-04-22T00:21:53.604Z,1011.57
2023-04-22T00:22:53.611Z,1011.57
2023-04-22T00:23:53.577Z,1011.51
2023-04-22T00:24:53.582Z,1011.57
2023-04-22T00:25:53.560Z,1011.51
2023-04-22T00:26:53.549Z,1011.48
2023-04-22T00:27:53.543Z,1011.44
2023-04-22T00:28:53.571Z,1011.51
2023-04-22T00:29:53.518Z,1011.45
2023-04-22T00:30:53.533Z,1011.40
2023-04-22T00:31:53.559Z,1011.42
2023-04-22T00:32:53.512Z,1011.36
2023-04-22T00:33:53.516Z,1011.44
2023-04-22T00:34:53.456Z,1011.36
2023-04-22T00:35:53.456Z,1011.43
2023-04-22T00:36:53.432Z,1011.48
2023-04-22T00:37:53.435Z,1011.44
2023-04-22T00:38:53.429Z,1011.42
2023-04-22T00:39:53.418Z,1011.38
2023-04-22T00:40:53.386Z,1011.39
2023-04-22T00:41:53.380Z,1011.42
2023-04-22T00:42:53.369Z,1011.43
2023-04-22T00:43:53.385Z,1011.41
2023-04-22T00:44:53.362Z,1011.32
2023-04-22T00:45:53.366Z,1011.34
2023-04-22T00:46:53.381Z,1011.31
2023-04-22T00:47:53.376Z,1011.35
2023-04-22T00:48:53.310Z,1011.35
2023-04-22T00:49:53.308Z,1011.38
2023-04-22T00:50:53.298Z,1011.34
2023-04-22T00:51:53.283Z,1011.30
2023-04-22T00:52:53.260Z,1011.34
2023-04-22T00:53:53.244Z,1011.26
2023-04-22T00:54:53.242Z,1011.28
2023-04-22T00:55:53.250Z,1011.29
2023-04-22T00:56:53.222Z,1011.31
2023-04-22T00:57:53.199Z,1011.28
2023-04-22T00:58:53.195Z,1011.23
2023-04-22T00:59:53.178Z,1011.28
2023-04-22T01:00:53.235Z,1011.24
2023-04-22T01:01:53.194Z,1011.25
2023-04-22T01:02:53.274Z,1011.25
2023-04-22T01:03:53.340Z,1011.17
2023-04-22T01:04:53.159Z,1011.16
2023-04-22T01:05:53.115Z,1011.24
2023-04-22T01:06:53.111Z,1011.15
2023-04-22T01:07:53.101Z,1011.21
2023-04-22T01:08:53.110Z,1011.20
2023-04-22T01:09:53.077Z,1011.20
2023-04-22T01:10:53.065Z,1011.09
2023-04-22T01:11:53.058Z,1011.09
2023-04-22T01:12:53.049Z,1011.13
2023-04-22T01:13:53.059Z,1011.10
2023-04-22T01:14:53.034Z,1011.21
2023-04-22T01:15:53.039Z,1011.12
2023-04-22T01:16:53.096Z,1011.21
2023-04-22T01:17:53.019Z,1011.16
2023-04-22T01:18:53.004Z,1011.11
2023-04-22T01:19:52.989Z,1011.17
2023-04-22T01:20:52.981Z,1011.15
2023-04-22T01:21:52.948Z,1011.17
2023-04-22T01:22:52.964Z,1011.14
2023-04-22T01:23:52.936Z,1011.14
2023-04-22T01:24:52.922Z,1011.12
2023-04-22T01:25:52.906Z,1011.06
2023-04-22T01:26:52.917Z,1011.07
2023-04-22T01:27:52.902Z,1011.12
2023-04-22T01:28:52.875Z,1011.08
2023-04-22T01:29:52.865Z,1011.03
2023-04-22T01:30:52.873Z,1011.12
2023-04-22T01:31:52.907Z,1011.02
2023-04-22T01:32:52.982Z,1011.07
2023-04-22T01:33:52.817Z,1011.12
2023-04-22T01:34:52.821Z,1011.05
2023-04-22T01:35:52.805Z,1011.06
2023-04-22T01:36:52.813Z,1011.09
2023-04-22T01:37:52.777Z,1011.04
2023-04-22T01:38:52.767Z,1011.03
2023-04-22T01:39:52.751Z,1011.03
2023-04-22T01:40:52.767Z,1011.03
2023-04-22T01:41:52.737Z,1011.03
2023-04-22T01:42:52.723Z,1011.02
2023-04-22T01:43:52.730Z,1011.04
2023-04-22T01:44:52.713Z,1010.99
2023-04-22T01:45:52.724Z,1010.98
2023-04-22T01:46:52.680Z,1011.00
2023-04-22T01:47:52.735Z,1010.97
2023-04-22T01:48:52.720Z,1010.90
2023-04-22T01:49:52.671Z,1010.96
2023-04-22T01:50:52.645Z,1010.95
2023-04-22T01:51:52.641Z,1010.91
2023-04-22T01:52:52.620Z,1010.90
2023-04-22T01:53:52.643Z,1010.92
2023-04-22T01:54:52.601Z,1010.92
2023-04-22T01:55:52.582Z,1010.96
2023-04-22T01:56:52.596Z,1010.95
2023-04-22T01:57:52.630Z,1010.93
2023-04-22T01:58:52.556Z,1010.92
2023-04-22T01:59:52.547Z,1010.92
2023-04-22T02:00:52.532Z,1010.89
2023-04-22T02:01:52.645Z,1010.90
2023-04-22T02:02:52.579Z,1010.86
2023-04-22T02:03:52.606Z,1010.90
2023-04-22T02:04:52.683Z,1010.86
2023-04-22T02:05:52.478Z,1010.85
2023-04-22T02:06:52.487Z,1010.88
2023-04-22T02:07:52.455Z,1010.85
2023-04-22T02:08:52.473Z,1010.79
2023-04-22T02:09:52.425Z,1010.85
2023-04-22T02:10:52.432Z,1010.82
2023-04-22T02:11:52.401Z,1010.82
2023-04-22T02:12:52.401Z,1010.79
2023-04-22T02:13:52.407Z,1010.84
2023-04-22T02:14:52.406Z,1010.79
2023-04-22T02:15:52.434Z,1010.81
2023-04-22T02:16:52.373Z,1010.79
2023-04-22T02:17:52.342Z,1010.78
2023-04-22T02:18:52.351Z,1010.80
2023-04-22T02:19:52.422Z,1010.77
2023-04-22T02:20:52.333Z,1010.76
2023-04-22T02:21:52.299Z,1010.75
2023-04-22T02:22:52.292Z,1010.73
2023-04-22T02:23:52.268Z,1010.74
2023-04-22T02:24:52.297Z,1010.63
2023-04-22T02:25:52.263Z,1010.67
2023-04-22T02:26:52.234Z,1010.70
2023-04-22T02:27:52.229Z,1010.67
2023-04-22T02:28:52.229Z,1010.69
2023-04-22T02:29:52.235Z,1010.61
2023-04-22T02:30:52.197Z,1010.62
2023-04-22T02:31:52.217Z,1010.62
2023-04-22T02:32:52.282Z,1010.56
2023-04-22T02:33:52.169Z,1010.63
2023-04-22T02:34:52.186Z,1010.61
2023-04-22T02:35:52.142Z,1010.57
2023-04-22T02:36:52.154Z,1010.52
2023-04-22T02:37:52.118Z,1010.58
2023-04-22T02:38:52.110Z,1010.54
2023-04-22T02:39:52.123Z,1010.51
2023-04-22T02:40:52.091Z,1010.52
2023-04-22T02:41:52.078Z,1010.53
2023-04-22T02:42:52.071Z,1010.48
2023-04-22T02:43:52.054Z,1010.49
2023-04-22T02:44:52.061Z,1010.44
2023-04-22T02:45:52.055Z,1010.38
2023-04-22T02:46:52.046Z,1010.44
2023-04-22T02:47:52.034Z,1010.42
2023-04-22T02:48:52.016Z,1010.37
2023-04-22T02:49:51.986Z,1010.40
2023-04-22T02:50:52.005Z,1010.34
2023-04-22T02:51:51.966Z,1010.42
2023-04-22T02:52:51.984Z,1010.42
2023-04-22T02:53:51.943Z,1010.39
2023-04-22T02:54:51.953Z,1010.38
2023-04-22T02:55:51.951Z,1010.40
2023-04-22T02:56:51.915Z,1010.39
2023-04-22T02:57:51.901Z,1010.43
2023-04-22T02:58:51.891Z,1010.46
2023-04-22T02:59:51.903Z,1010.44
2023-04-22T03:00:51.966Z,1010.43
2023-04-22T03:01:51.906Z,1010.43
2023-04-22T03:02:52.071Z,1010.47
2023-04-22T03:03:52.004Z,1010.47
2023-04-22T03:04:51.830Z,1010.46
2023-04-22T03:05:51.811Z,1010.46
2023-04-22T03:06:51.838Z,1010.44
2023-04-22T03:07:51.801Z,1010.42
2023-04-22T03:08:51.809Z,1010.43
2023-04-22T03:09:51.771Z,1010.39
2023-04-22T03:10:51.766Z,1010.41
2023-04-22T03:11:51.770Z,1010.44
2023-04-22T03:12:51.746Z,1010.43
2023-04-22T03:13:51.733Z,1010.40
2023-04-22T03:14:51.727Z,1010.39
2023-04-22T03:15:51.724Z,1010.39
2023-04-22T03:16:51.771Z,1010.38
2023-04-22T03:17:51.732Z,1010.40
2023-04-22T03:18:51.688Z,1010.34
2023-04-22T03:19:51.680Z,1010.37
2023-04-22T03:20:51.653Z,1010.34
2023-04-22T03:21:51.666Z,1010.34
2023-04-22T03:22:51.641Z,1010.38
2023-04-22T03:23:51.628Z,1010.37
2023-04-22T03:24:51.662Z,1010.39
2023-04-22T03:25:51.601Z,1010.39
2023-04-22T03:26:51.612Z,1010.40
2023-04-22T03:27:51.582Z,1010.34
2023-04-22T03:28:51.607Z,1010.37
2023-04-22T03:29:51.558Z,1010.34
2023-04-22T03:30:51.572Z,1010.34
2023-04-22T03:31:51.650Z,1010.34
2023-04-22T03:32:51.559Z,1010.32
2023-04-22T03:33:51.511Z,1010.32
2023-04-22T03:34:51.507Z,1010.33
2023-04-22T03:35:51.517Z,1010.28
2023-04-22T03:36:51.491Z,1010.33
2023-04-22T03:37:51.470Z,1010.34
2023-04-22T03:38:51.491Z,1010.35
2023-04-22T03:39:51.456Z,1010.37
2023-04-22T03:40:51.753Z,1010.40
2023-04-22T03:41:51.428Z,1010.37
2023-04-22T03:42:51.420Z,1010.34
2023-04-22T03:43:51.402Z,1010.30
2023-04-22T03:44:51.401Z,1010.28
2023-04-22T03:45:51.432Z,1010.40
2023-04-22T03:46:51.373Z,1010.36
2023-04-22T03:47:51.376Z,1010.34
2023-04-22T03:48:51.363Z,1010.31
2023-04-22T03:49:51.356Z,1010.32
2023-04-22T03:50:51.358Z,1010.34
2023-04-22T03:51:51.332Z,1010.32
2023-04-22T03:52:51.320Z,1010.32
2023-04-22T03:53:51.304Z,1010.34
2023-04-22T03:54:51.306Z,1010.30
2023-04-22T03:55:51.308Z,1010.37
2023-04-22T03:56:51.310Z,1010.34
2023-04-22T03:57:51.261Z,1010.43
2023-04-22T03:58:51.256Z,1010.43
2023-04-22T03:59:51.233Z,1010.43
2023-04-22T04:00:51.256Z,1010.44
2023-04-22T04:01:51.206Z,1010.38
2023-04-22T04:02:51.386Z,1010.38
2023-04-22T04:03:51.342Z,1010.43
2023-04-22T04:04:51.734Z,1010.39
2023-04-22T04:05:51.192Z,1010.35
2023-04-22T04:06:51.201Z,1010.38
2023-04-22T04:07:51.167Z,1010.33
2023-04-22T04:08:51.133Z,1010.35
2023-04-22T04:09:51.136Z,1010.31
2023-04-22T04:10:51.118Z,1010.35
2023-04-22T04:11:51.119Z,1010.34
2023-04-22T04:12:51.117Z,1010.27
2023-04-22T04:13:51.084Z,1010.36
2023-04-22T04:14:51.104Z,1010.36
2023-04-22T04:15:51.121Z,1010.32
2023-04-22T04:16:51.051Z,1010.28
2023-04-22T04:17:51.079Z,1010.31
2023-04-22T04:18:51.030Z,1010.34
2023-04-22T04:19:51.015Z,1010.34
2023-04-22T04:20:51.012Z,1010.32
2023-04-22T04:21:51.014Z,1010.32
2023-04-22T04:22:51.021Z,1010.31
2023-04-22T04:23:50.984Z,1010.33
2023-04-22T04:24:50.967Z,1010.33
2023-04-22T04:25:50.951Z,1010.31
2023-04-22T04:26:50.947Z,1010.30
2023-04-22T04:27:50.926Z,1010.28
2023-04-22T04:28:51.079Z,1010.35
2023-04-22T04:29:50.936Z,1010.38
2023-04-22T04:30:50.913Z,1010.35
2023-04-22T04:31:50.974Z,1010.38
2023-04-22T04:32:50.928Z,1010.42
2023-04-22T04:33:50.860Z,1010.38
2023-04-22T04:34:50.854Z,1010.39
2023-04-22T04:35:50.854Z,1010.37
2023-04-22T04:36:50.864Z,1010.34
2023-04-22T04:37:50.844Z,1010.34
2023-04-22T04:38:51.255Z,1010.31
2023-04-22T04:39:50.801Z,1010.34
2023-04-22T04:40:50.790Z,1010.29
2023-04-22T04:41:50.802Z,1010.34
2023-04-22T04:42:50.764Z,1010.33
2023-04-22T04:43:50.757Z,1010.34
2023-04-22T04:44:50.761Z,1010.33
2023-04-22T04:45:50.752Z,1010.36
2023-04-22T04:46:50.827Z,1010.39
2023-04-22T04:47:50.822Z,1010.40
2023-04-22T04:48:50.740Z,1010.37
2023-04-22T04:49:50.688Z,1010.44
2023-04-22T04:50:50.678Z,1010.41
2023-04-22T04:51:50.665Z,1010.40
2023-04-22T04:52:51.585Z,1010.31
2023-04-22T04:53:50.642Z,1010.36
2023-04-22T04:54:50.636Z,1010.38
2023-04-22T04:55:50.620Z,1010.37
2023-04-22T04:56:50.633Z,1010.40
2023-04-22T04:57:50.613Z,1010.37
2023-04-22T04:58:50.596Z,1010.37
2023-04-22T04:59:50.583Z,1010.37
2023-04-22T05:00:50.596Z,1010.38
2023-04-22T05:01:50.677Z,1010.41
2023-04-22T05:02:50.646Z,1010.40
2023-04-22T05:03:50.738Z,1010.38
2023-04-22T05:04:50.654Z,1010.38
2023-04-22T05:05:50.521Z,1010.44
2023-04-22T05:06:50.558Z,1010.38
2023-04-22T05:07:50.496Z,1010.35
2023-04-22T05:08:50.494Z,1010.38
2023-04-22T05:09:50.479Z,1010.38
2023-04-22T05:10:50.466Z,1010.43
2023-04-22T05:11:50.456Z,1010.41
2023-04-22T05:12:50.475Z,1010.41
2023-04-22T05:13:50.439Z,1010.43
2023-04-22T05:14:50.423Z,1010.39
2023-04-22T05:15:50.423Z,1010.40
2023-04-22T05:16:50.613Z,1010.37
2023-04-22T05:17:50.483Z,1010.38
2023-04-22T05:18:50.386Z,1010.37
2023-04-22T05:19:50.384Z,1010.40
2023-04-22T05:20:50.358Z,1010.41
2023-04-22T05:21:50.355Z,1010.35
2023-04-22T05:22:50.364Z,1010.33
2023-04-22T05:23:50.335Z,1010.35
2023-04-22T05:24:50.310Z,1010.34
2023-04-22T05:25:52.742Z,1010.32
2023-04-22T05:26:50.290Z,1010.30
2023-04-22T05:27:50.310Z,1010.33
2023-04-22T05:28:50.277Z,1010.31
2023-04-22T05:29:50.273Z,1010.36
2023-04-22T05:30:50.276Z,1010.37
2023-04-22T05:31:50.310Z,1010.36
2023-04-22T05:32:50.364Z,1010.35
2023-04-22T05:33:50.233Z,1010.36
2023-04-22T05:34:50.215Z,1010.36
2023-04-22T05:35:50.228Z,1010.35
2023-04-22T05:36:50.182Z,1010.36
2023-04-22T05:37:50.181Z,1010.38
2023-04-22T05:38:50.173Z,1010.32
2023-04-22T05:39:50.160Z,1010.34
2023-04-22T05:40:50.184Z,1010.34
2023-04-22T05:41:50.145Z,1010.36
2023-04-22T05:42:50.129Z,1010.35
2023-04-22T05:43:50.140Z,1010.37
2023-04-22T05:44:50.099Z,1010.37
2023-04-22T05:45:50.188Z,1010.36
2023-04-22T05:46:50.083Z,1010.38
2023-04-22T05:47:50.136Z,1010.35
2023-04-22T05:48:50.085Z,1010.38
2023-04-22T05:49:50.048Z,1010.37
2023-04-22T05:50:50.056Z,1010.37
2023-04-22T05:51:50.036Z,1010.37
2023-04-22T05:52:50.028Z,1010.39
2023-04-22T05:53:50.023Z,1010.41
2023-04-22T05:54:50.008Z,1010.42
2023-04-22T05:55:49.999Z,1010.39
2023-04-22T05:56:50.000Z,1010.32
2023-04-22T05:57:49.968Z,1010.43
2023-04-22T05:58:49.959Z,1010.35
2023-04-22T05:59:49.935Z,1010.37
2023-04-22T06:00:49.928Z,1010.41
2023-04-22T06:01:49.955Z,1010.41
2023-04-22T06:02:50.199Z,1010.35
2023-04-22T06:03:50.207Z,1010.45
2023-04-22T06:04:50.430Z,1010.44
2023-04-22T06:05:49.941Z,1010.38
2023-04-22T06:06:49.876Z,1010.37
2023-04-22T06:07:49.851Z,1010.35
2023-04-22T06:08:49.832Z,1010.36
2023-04-22T06:09:49.827Z,1010.37
2023-04-22T06:10:49.820Z,1010.34
2023-04-22T06:11:49.827Z,1010.30
2023-04-22T06:12:49.798Z,1010.37
2023-04-22T06:13:49.783Z,1010.36
2023-04-22T06:14:49.772Z,1010.34
2023-04-22T06:15:49.780Z,1010.36
2023-04-22T06:16:49.780Z,1010.36
2023-04-22T06:17:49.828Z,1010.33
2023-04-22T06:18:49.721Z,1010.38
2023-04-22T06:19:49.749Z,1010.35
2023-04-22T06:20:49.726Z,1010.33
2023-04-22T06:21:49.741Z,1010.31
2023-04-22T06:22:49.678Z,1010.36
2023-04-22T06:23:49.677Z,1010.38
2023-04-22T06:24:49.691Z,1010.36
2023-04-22T06:25:49.656Z,1010.37
2023-04-22T06:26:49.637Z,1010.39
2023-04-22T06:27:49.635Z,1010.42
2023-04-22T06:28:49.624Z,1010.42
2023-04-22T06:29:49.641Z,1010.44
2023-04-22T06:30:49.685Z,1010.40
2023-04-22T06:31:49.622Z,1010.41
2023-04-22T06:32:49.603Z,1010.44
2023-04-22T06:33:49.574Z,1010.47
2023-04-22T06:34:49.569Z,1010.42
2023-04-22T06:35:49.542Z,1010.44
2023-04-22T06:36:49.586Z,1010.41
2023-04-22T06:37:49.532Z,1010.43
2023-04-22T06:38:49.509Z,1010.43
2023-04-22T06:39:49.495Z,1010.47
2023-04-22T06:40:49.483Z,1010.47
2023-04-22T06:41:49.521Z,1010.47
2023-04-22T06:42:49.486Z,1010.49
2023-04-22T06:43:49.474Z,1010.42
2023-04-22T06:44:49.454Z,1010.41
2023-04-22T06:45:49.463Z,1010.40
2023-04-22T06:46:49.442Z,1010.39
2023-04-22T06:47:49.466Z,1010.37
2023-04-22T06:48:49.412Z,1010.39
2023-04-22T06:49:49.388Z,1010.39
2023-04-22T06:50:49.396Z,1010.37
2023-04-22T06:51:49.375Z,1010.35
2023-04-22T06:52:49.377Z,1010.34
2023-04-22T06:53:49.372Z,1010.29
2023-04-22T06:54:49.336Z,1010.38
2023-04-22T06:55:49.348Z,1010.36
2023-04-22T06:56:49.315Z,1010.36
2023-04-22T06:57:49.306Z,1010.37
2023-04-22T06:58:49.312Z,1010.37
2023-04-22T06:59:49.283Z,1010.33
2023-04-22T07:00:49.288Z,1010.32
2023-04-22T07:01:49.272Z,1010.31
2023-04-22T07:02:49.336Z,1010.37
2023-04-22T07:03:49.313Z,1010.41
2023-04-22T07:04:49.229Z,1010.40
2023-04-22T07:05:49.252Z,1010.39
2023-04-22T07:06:49.229Z,1010.36
2023-04-22T07:07:49.198Z,1010.31
2023-04-22T07:08:49.204Z,1010.33
2023-04-22T07:09:49.186Z,1010.35
2023-04-22T07:10:49.166Z,1010.32
2023-04-22T07:11:49.175Z,1010.25
2023-04-22T07:12:49.139Z,1010.32
2023-04-22T07:13:49.122Z,1010.34
2023-04-22T07:14:49.113Z,1010.35
2023-04-22T07:15:49.137Z,1010.40
2023-04-22T07:16:49.225Z,1010.32
2023-04-22T07:17:49.098Z,1010.41
2023-04-22T07:18:49.075Z,1010.32
2023-04-22T07:19:49.068Z,1010.31
2023-04-22T07:20:49.067Z,1010.38
2023-04-22T07:21:49.066Z,1010.32
2023-04-22T07:22:49.044Z,1010.32
2023-04-22T07:23:49.023Z,1010.33
2023-04-22T07:24:49.025Z,1010.30
2023-04-22T07:25:49.004Z,1010.33
2023-04-22T07:26:49.013Z,1010.37
2023-04-22T07:27:49.011Z,1010.39
2023-04-22T07:28:48.961Z,1010.36
2023-04-22T07:29:48.950Z,1010.32
2023-04-22T07:30:48.963Z,1010.31
2023-04-22T07:31:48.989Z,1010.37
2023-04-22T07:32:49.132Z,1010.40
2023-04-22T07:33:48.913Z,1010.35
2023-04-22T07:34:48.899Z,1010.33
2023-04-22T07:35:48.911Z,1010.32
2023-04-22T07:36:48.873Z,1010.33
2023-04-22T07:37:48.894Z,1010.32
2023-04-22T07:38:48.855Z,1010.29
2023-04-22T07:39:48.847Z,1010.34
2023-04-22T07:40:48.871Z,1010.27
2023-04-22T07:41:48.823Z,1010.30
2023-04-22T07:42:48.833Z,1010.28
2023-04-22T07:43:48.799Z,1010.31
2023-04-22T07:44:48.793Z,1010.30
2023-04-22T07:45:48.815Z,1010.25
2023-04-22T07:46:48.782Z,1010.32
2023-04-22T07:47:48.780Z,1010.27
2023-04-22T07:48:48.743Z,1010.25
2023-04-22T07:49:48.732Z,1010.25
2023-04-22T07:50:48.725Z,1010.21
2023-04-22T07:51:48.714Z,1010.20
2023-04-22T07:52:48.755Z,1010.21
2023-04-22T07:53:48.696Z,1010.23
2023-04-22T07:54:48.688Z,1010.22
2023-04-22T07:55:48.674Z,1010.16
2023-04-22T07:56:48.683Z,1010.19
2023-04-22T07:57:48.655Z,1010.24
2023-04-22T07:58:48.657Z,1010.21
2023-04-22T07:59:48.626Z,1010.16
2023-04-22T08:00:48.656Z,1010.13
2023-04-22T08:01:48.605Z,1010.14
2023-04-22T08:02:48.732Z,1010.13
2023-04-22T08:03:48.791Z,1010.12
2023-04-22T08:04:48.682Z,1010.09
2023-04-22T08:05:48.563Z,1010.04
2023-04-22T08:06:48.567Z,1010.05
2023-04-22T08:07:48.545Z,1010.03
2023-04-22T08:08:48.525Z,1009.96
2023-04-22T08:09:48.556Z,1009.94
2023-04-22T08:10:48.509Z,1010.02
2023-04-22T08:11:48.502Z,1009.99
2023-04-22T08:12:48.516Z,1009.95
2023-04-22T08:13:48.495Z,1009.98
2023-04-22T08:14:48.500Z,1009.95
2023-04-22T08:15:48.539Z,1009.92
2023-04-22T08:16:48.456Z,1009.94
2023-04-22T08:17:48.470Z,1009.99
2023-04-22T08:18:48.426Z,1009.96
2023-04-22T08:19:48.416Z,1009.93
2023-04-22T08:20:48.428Z,1009.86
2023-04-22T08:21:48.416Z,1009.90
2023-04-22T08:22:48.382Z,1009.93
2023-04-22T08:23:48.381Z,1009.87
2023-04-22T08:24:48.383Z,1009.92
2023-04-22T08:25:48.353Z,1009.85
2023-04-22T08:26:48.350Z,1009.88
2023-04-22T08:27:48.330Z,1009.90
2023-04-22T08:28:48.339Z,1009.95
2023-04-22T08:29:48.344Z,1009.92
2023-04-22T08:30:48.310Z,1009.97
2023-04-22T08:31:48.438Z,1009.92
2023-04-22T08:32:48.297Z,1009.89
2023-04-22T08:33:48.266Z,1009.92
2023-04-22T08:34:51.596Z,1009.90
2023-04-22T08:35:48.274Z,1009.83
2023-04-22T08:36:48.228Z,1009.88
2023-04-22T08:37:48.253Z,1009.81
2023-04-22T08:38:50.038Z,1009.84
2023-04-22T08:39:48.200Z,1009.86
2023-04-22T08:40:48.193Z,1009.80
2023-04-22T08:41:48.200Z,1009.86
2023-04-22T08:42:48.174Z,1009.88
2023-04-22T08:43:48.160Z,1009.82
2023-04-22T08:44:48.170Z,1009.85
2023-04-22T08:45:48.138Z,1009.85
2023-04-22T08:46:48.214Z,1009.86
2023-04-22T08:47:48.158Z,1009.83
2023-04-22T08:48:48.100Z,1009.85
2023-04-22T08:49:48.096Z,1009.86
2023-04-22T08:50:48.079Z,1009.80
2023-04-22T08:51:48.072Z,1009.81
2023-04-22T08:52:48.075Z,1009.78
2023-04-22T08:53:48.050Z,1009.88
2023-04-22T08:54:48.032Z,1009.80
2023-04-22T08:55:48.026Z,1009.86
2023-04-22T08:56:48.022Z,1009.91
2023-04-22T08:57:48.041Z,1009.89
2023-04-22T08:58:47.990Z,1009.89
2023-04-22T08:59:47.988Z,1009.84
2023-04-22T09:00:47.989Z,1009.82
2023-04-22T09:01:47.996Z,1009.86
2023-04-22T09:02:48.019Z,1009.92
2023-04-22T09:03:48.027Z,1010.00
2023-04-22T09:04:47.931Z,1009.92
2023-04-22T09:05:47.917Z,1009.88
2023-04-22T09:06:47.903Z,1009.94
2023-04-22T09:07:47.917Z,1009.82
2023-04-22T09:08:47.902Z,1009.85
2023-04-22T09:09:47.879Z,1009.81
2023-04-22T09:10:47.873Z,1009.84
2023-04-22T09:11:47.858Z,1009.83
2023-04-22T09:12:47.864Z,1009.80
2023-04-22T09:13:47.860Z,1009.77
2023-04-22T09:14:47.835Z,1009.73
2023-04-22T09:15:47.811Z,1009.81
2023-04-22T09:16:47.913Z,1009.77
2023-04-22T09:17:47.830Z,1009.76
2023-04-22T09:18:47.791Z,1009.78
2023-04-22T09:19:47.771Z,1009.69
2023-04-22T09:20:47.759Z,1009.64
2023-04-22T09:21:49.575Z,1009.70
2023-04-22T09:22:47.759Z,1009.71
2023-04-22T09:23:47.739Z,1009.68
2023-04-22T09:24:47.703Z,1009.63
2023-04-22T09:25:47.708Z,1009.65
2023-04-22T09:26:47.688Z,1009.65
2023-04-22T09:27:48.122Z,1009.67
2023-04-22T09:28:47.696Z,1009.64
2023-04-22T09:29:47.657Z,1009.66
2023-04-22T09:30:47.676Z,1009.61
2023-04-22T09:31:47.724Z,1009.61
2023-04-22T09:32:47.863Z,1009.57
2023-04-22T09:33:50.051Z,1009.53
2023-04-22T09:34:47.605Z,1009.54
2023-04-22T09:35:47.626Z,1009.53
2023-04-22T09:36:47.587Z,1009.52
2023-04-22T09:37:49.673Z,1009.50
2023-04-22T09:38:47.565Z,1009.47
2023-04-22T09:39:49.618Z,1009.49
2023-04-22T09:40:47.579Z,1009.53
2023-04-22T09:41:47.526Z,1009.48
2023-04-22T09:42:47.519Z,1009.45
2023-04-22T09:43:47.506Z,1009.41
2023-04-22T09:44:47.494Z,1009.50
2023-04-22T09:45:47.512Z,1009.47
2023-04-22T09:46:47.469Z,1009.46
2023-04-22T09:47:47.478Z,1009.45
2023-04-22T09:48:47.464Z,1009.43
2023-04-22T09:49:47.439Z,1009.42
2023-04-22T09:50:47.451Z,1009.47
2023-04-22T09:51:49.333Z,1009.41
2023-04-22T09:52:47.404Z,1009.45
2023-04-22T09:53:47.391Z,1009.40
2023-04-22T09:54:47.391Z,1009.41
2023-04-22T09:55:47.400Z,1009.31
2023-04-22T09:56:47.368Z,1009.34
2023-04-22T09:57:47.355Z,1009.34
2023-04-22T09:58:47.367Z,1009.36
2023-04-22T09:59:47.330Z,1009.32
2023-04-22T10:00:47.326Z,1009.38
2023-04-22T10:01:47.329Z,1009.30
2023-04-22T10:02:47.376Z,1009.23
2023-04-22T10:03:47.327Z,1009.18
2023-04-22T10:04:47.315Z,1009.18
2023-04-22T10:05:47.297Z,1009.22
2023-04-22T10:06:47.271Z,1009.24
2023-04-22T10:07:47.299Z,1009.14
2023-04-22T10:08:47.252Z,1009.22
2023-04-22T10:09:47.224Z,1009.25
2023-04-22T10:10:47.237Z,1009.28
2023-04-22T10:11:47.405Z,1009.23
2023-04-22T10:12:47.197Z,1009.30
2023-04-22T10:13:47.198Z,1009.23
2023-04-22T10:14:47.176Z,1009.21
2023-04-22T10:15:47.178Z,1009.22
2023-04-22T10:16:47.209Z,1009.24
2023-04-22T10:17:47.185Z,1009.28
2023-04-22T10:18:47.128Z,1009.29
2023-04-22T10:19:47.135Z,1009.27
2023-04-22T10:20:47.128Z,1009.22
2023-04-22T10:21:47.090Z,1009.31
2023-04-22T10:22:47.084Z,1009.29
2023-04-22T10:23:47.074Z,1009.18
2023-04-22T10:24:47.081Z,1009.17
2023-04-22T10:25:47.078Z,1009.12
2023-04-22T10:26:47.044Z,1009.12
2023-04-22T10:27:47.020Z,1009.05
2023-04-22T10:28:47.016Z,1009.07
2023-04-22T10:29:47.009Z,1009.06
2023-04-22T10:30:47.068Z,1009.08
2023-04-22T10:31:47.002Z,1009.13
2023-04-22T10:32:46.982Z,1009.06
2023-04-22T10:33:46.964Z,1009.07
2023-04-22T10:34:46.957Z,1009.20
2023-04-22T10:35:46.936Z,1009.13
2023-04-22T10:36:46.978Z,1008.95
2023-04-22T10:37:46.924Z,1008.82
2023-04-22T10:38:46.913Z,1008.92
2023-04-22T10:39:46.898Z,1008.99
2023-04-22T10:40:46.901Z,1008.95
2023-04-22T10:41:46.898Z,1009.11
2023-04-22T10:42:46.869Z,1009.00
2023-04-22T10:43:46.850Z,1009.03
2023-04-22T10:44:46.873Z,1008.94
2023-04-22T10:45:46.826Z,1008.91
2023-04-22T10:46:47.032Z,1008.87
2023-04-22T10:47:46.870Z,1008.92
2023-04-22T10:48:46.802Z,1008.93
2023-04-22T10:49:46.794Z,1008.90
2023-04-22T10:50:46.817Z,1008.98
2023-04-22T10:51:46.773Z,1008.93
2023-04-22T10:52:46.809Z,1008.93
2023-04-22T10:53:46.748Z,1008.79
2023-04-22T10:54:46.751Z,1008.74
2023-04-22T10:55:46.741Z,1008.80
2023-04-22T10:56:51.835Z,1008.82
2023-04-22T10:57:47.724Z,1008.79
2023-04-22T10:58:46.698Z,1008.79
2023-04-22T11:00:53.605Z,1008.71
2023-04-22T11:01:47.730Z,1008.63
2023-04-22T11:02:46.858Z,1008.66
2023-04-22T11:03:46.764Z,1008.57
2023-04-22T11:04:46.672Z,1008.60
2023-04-22T11:05:46.632Z,1008.58
2023-04-22T11:06:46.630Z,1008.67
2023-04-22T11:07:46.598Z,1008.59
2023-04-22T11:08:46.612Z,1008.68
2023-04-22T11:09:46.607Z,1008.69
2023-04-22T11:10:46.572Z,1008.56
2023-04-22T11:11:46.559Z,1008.57
2023-04-22T11:12:46.551Z,1008.55
2023-04-22T11:13:46.542Z,1008.58
2023-04-22T11:14:46.582Z,1008.63
2023-04-22T11:15:46.547Z,1008.59
2023-04-22T11:16:46.601Z,1008.59
2023-04-22T11:17:46.560Z,1008.55
2023-04-22T11:18:46.552Z,1008.49
2023-04-22T11:19:46.498Z,1008.53
2023-04-22T11:20:46.514Z,1008.55
2023-04-22T11:21:46.475Z,1008.52
2023-04-22T11:22:46.467Z,1008.51
2023-04-22T11:23:46.437Z,1008.48
2023-04-22T11:24:46.465Z,1008.51
2023-04-22T11:25:46.431Z,1008.43
2023-04-22T11:26:46.419Z,1008.46
2023-04-22T11:27:46.414Z,1008.46
2023-04-22T11:28:46.397Z,1008.44
2023-04-22T11:29:46.379Z,1008.42
2023-04-22T11:30:46.385Z,1008.42
2023-04-22T11:31:46.444Z,1008.43
2023-04-22T11:32:46.481Z,1008.42
2023-04-22T11:33:47.320Z,1008.44
2023-04-22T11:34:46.335Z,1008.44
2023-04-22T11:35:46.337Z,1008.42
2023-04-22T11:36:46.304Z,1008.50
2023-04-22T11:37:46.289Z,1008.44
2023-04-22T11:38:46.285Z,1008.44
2023-04-22T11:40:01.914Z,1008.48
2023-04-22T11:40:47.830Z,1008.42
2023-04-22T11:41:46.256Z,1008.41
2023-04-22T11:42:46.252Z,1008.44
2023-04-22T11:43:46.256Z,1008.44
2023-04-22T11:44:46.226Z,1008.36
2023-04-22T11:45:46.316Z,1008.34
2023-04-22T11:46:46.224Z,1008.29
2023-04-22T11:47:46.337Z,1008.38
2023-04-22T11:48:46.185Z,1008.31
2023-04-22T11:49:46.173Z,1008.32
2023-04-22T11:50:46.188Z,1008.28
2023-04-22T11:51:46.149Z,1008.23
2023-04-22T11:52:46.144Z,1008.28
2023-04-22T11:53:46.124Z,1008.18
2023-04-22T11:54:46.123Z,1008.20
2023-04-22T11:55:46.126Z,1008.18
2023-04-22T11:56:46.125Z,1008.14
2023-04-22T11:57:46.101Z,1008.28
2023-04-22T11:58:46.086Z,1008.12
2023-04-22T11:59:46.064Z,1008.06
2023-04-22T12:00:46.114Z,1008.17
2023-04-22T12:01:46.038Z,1008.23
2023-04-22T12:02:46.188Z,1008.15
2023-04-22T12:03:46.223Z,1008.20
2023-04-22T12:04:46.014Z,1008.18
2023-04-22T12:05:46.032Z,1008.24
2023-04-22T12:06:46.043Z,1008.27